sensor_id;sensor_type;location;lat;lon;timestamp;P1;durP1;ratioP1;P2;durP2;ratioP2
17151;SDS011;8691;50.828;4.700;2023-04-25T00:02:14;12.25;;;5.00;;
17151;SDS011;8691;50.828;4.700;2023-04-25T00:04:41;11.82;;;5.40;;
17151;SDS011;8691;50.828;4.700;2023-04-25T00:07:08;11.95;;;5.43;;
17151;SDS011;8691;50.828;4.700;2023-04-25T00:09:35;10.65;;;5.05;;
17151;SDS011;8691;50.828;4.700;2023-04-25T00:12:02;12.68;;;5.45;;
17151;SDS011;8691;50.828;4.700;2023-04-25T00:14:29;14.15;;;5.30;;
17151;SDS011;8691;50.828;4.700;2023-04-25T00:16:56;11.40;;;4.82;;
17151;SDS011;8691;50.828;4.700;2023-04-25T00:19:24;11.05;;;5.10;;
17151;SDS011;8691;50.828;4.700;2023-04-25T00:21:50;11.10;;;4.83;;
17151;SDS011;8691;50.828;4.700;2023-04-25T00:24:17;12.85;;;5.30;;
17151;SDS011;8691;50.828;4.700;2023-04-25T00:26:44;13.40;;;5.78;;
17151;SDS011;8691;50.828;4.700;2023-04-25T00:29:11;11.13;;;5.23;;
17151;SDS011;8691;50.828;4.700;2023-04-25T00:31:38;12.40;;;5.30;;
17151;SDS011;8691;50.828;4.700;2023-04-25T00:34:05;12.93;;;4.40;;
17151;SDS011;8691;50.828;4.700;2023-04-25T00:36:31;13.85;;;5.68;;
17151;SDS011;8691;50.828;4.700;2023-04-25T00:38:58;10.80;;;5.22;;
17151;SDS011;8691;50.828;4.700;2023-04-25T00:41:25;8.43;;;4.47;;
17151;SDS011;8691;50.828;4.700;2023-04-25T00:43:52;12.53;;;5.40;;
17151;SDS011;8691;50.828;4.700;2023-04-25T00:46:19;11.02;;;5.25;;
17151;SDS011;8691;50.828;4.700;2023-04-25T00:48:46;12.75;;;5.43;;
17151;SDS011;8691;50.828;4.700;2023-04-25T00:51:14;12.50;;;5.50;;
17151;SDS011;8691;50.828;4.700;2023-04-25T00:53:40;13.15;;;5.57;;
17151;SDS011;8691;50.828;4.700;2023-04-25T00:56:08;14.30;;;5.47;;
17151;SDS011;8691;50.828;4.700;2023-04-25T00:58:35;11.93;;;5.70;;
17151;SDS011;8691;50.828;4.700;2023-04-25T01:01:03;14.30;;;5.55;;
17151;SDS011;8691;50.828;4.700;2023-04-25T01:03:31;11.80;;;5.47;;
17151;SDS011;8691;50.828;4.700;2023-04-25T01:05:57;14.02;;;5.85;;
17151;SDS011;8691;50.828;4.700;2023-04-25T01:08:24;13.30;;;5.50;;
17151;SDS011;8691;50.828;4.700;2023-04-25T01:10:53;12.45;;;5.72;;
17151;SDS011;8691;50.828;4.700;2023-04-25T01:13:21;14.02;;;6.10;;
17151;SDS011;8691;50.828;4.700;2023-04-25T01:15:47;15.05;;;6.20;;
17151;SDS011;8691;50.828;4.700;2023-04-25T01:18:14;13.18;;;5.80;;
17151;SDS011;8691;50.828;4.700;2023-04-25T01:20:41;14.43;;;6.07;;
17151;SDS011;8691;50.828;4.700;2023-04-25T01:23:09;15.20;;;6.05;;
17151;SDS011;8691;50.828;4.700;2023-04-25T01:25:37;14.05;;;6.35;;
17151;SDS011;8691;50.828;4.700;2023-04-25T01:28:04;13.20;;;6.10;;
17151;SDS011;8691;50.828;4.700;2023-04-25T01:30:31;12.53;;;6.30;;
17151;SDS011;8691;50.828;4.700;2023-04-25T01:32:58;14.17;;;6.10;;
17151;SDS011;8691;50.828;4.700;2023-04-25T01:35:25;14.30;;;6.10;;
17151;SDS011;8691;50.828;4.700;2023-04-25T01:37:52;14.43;;;6.00;;
17151;SDS011;8691;50.828;4.700;2023-04-25T01:40:19;14.70;;;6.10;;
17151;SDS011;8691;50.828;4.700;2023-04-25T01:42:46;15.33;;;7.10;;
17151;SDS011;8691;50.828;4.700;2023-04-25T01:45:13;19.03;;;6.27;;
17151;SDS011;8691;50.828;4.700;2023-04-25T01:47:41;14.43;;;6.00;;
17151;SDS011;8691;50.828;4.700;2023-04-25T01:50:08;14.80;;;6.15;;
17151;SDS011;8691;50.828;4.700;2023-04-25T01:52:34;17.27;;;6.40;;
17151;SDS011;8691;50.828;4.700;2023-04-25T01:55:01;15.63;;;6.23;;
17151;SDS011;8691;50.828;4.700;2023-04-25T01:57:28;14.05;;;6.20;;
17151;SDS011;8691;50.828;4.700;2023-04-25T01:59:57;16.62;;;6.03;;
17151;SDS011;8691;50.828;4.700;2023-04-25T02:02:22;16.20;;;4.90;;
17151;SDS011;8691;50.828;4.700;2023-04-25T02:04:49;13.82;;;5.72;;
17151;SDS011;8691;50.828;4.700;2023-04-25T02:07:15;15.75;;;5.70;;
17151;SDS011;8691;50.828;4.700;2023-04-25T02:09:42;13.23;;;5.40;;
17151;SDS011;8691;50.828;4.700;2023-04-25T02:12:09;15.77;;;5.53;;
17151;SDS011;8691;50.828;4.700;2023-04-25T02:14:36;15.97;;;5.53;;
17151;SDS011;8691;50.828;4.700;2023-04-25T02:17:03;14.55;;;5.72;;
17151;SDS011;8691;50.828;4.700;2023-04-25T02:19:30;11.30;;;4.95;;
17151;SDS011;8691;50.828;4.700;2023-04-25T02:21:57;11.40;;;4.93;;
17151;SDS011;8691;50.828;4.700;2023-04-25T02:24:24;16.33;;;5.00;;
17151;SDS011;8691;50.828;4.700;2023-04-25T02:26:51;15.93;;;5.72;;
17151;SDS011;8691;50.828;4.700;2023-04-25T02:29:17;13.77;;;5.38;;
17151;SDS011;8691;50.828;4.700;2023-04-25T02:31:44;13.73;;;4.80;;
17151;SDS011;8691;50.828;4.700;2023-04-25T02:34:12;11.43;;;4.60;;
17151;SDS011;8691;50.828;4.700;2023-04-25T02:36:39;14.02;;;4.85;;
17151;SDS011;8691;50.828;4.700;2023-04-25T02:39:06;13.97;;;5.17;;
17151;SDS011;8691;50.828;4.700;2023-04-25T02:41:33;12.90;;;5.15;;
17151;SDS011;8691;50.828;4.700;2023-04-25T02:44:00;14.82;;;5.30;;
17151;SDS011;8691;50.828;4.700;2023-04-25T02:46:27;16.33;;;5.20;;
17151;SDS011;8691;50.828;4.700;2023-04-25T02:48:54;14.60;;;5.50;;
17151;SDS011;8691;50.828;4.700;2023-04-25T02:51:21;12.23;;;5.40;;
17151;SDS011;8691;50.828;4.700;2023-04-25T02:53:49;12.73;;;5.35;;
17151;SDS011;8691;50.828;4.700;2023-04-25T02:56:16;13.03;;;5.83;;
17151;SDS011;8691;50.828;4.700;2023-04-25T02:58:44;15.20;;;5.63;;
17151;SDS011;8691;50.828;4.700;2023-04-25T03:01:11;15.02;;;5.28;;
17151;SDS011;8691;50.828;4.700;2023-04-25T03:03:38;14.25;;;5.38;;
17151;SDS011;8691;50.828;4.700;2023-04-25T03:06:05;16.63;;;5.10;;
17151;SDS011;8691;50.828;4.700;2023-04-25T03:08:32;13.13;;;5.13;;
17151;SDS011;8691;50.828;4.700;2023-04-25T03:10:59;13.48;;;4.75;;
17151;SDS011;8691;50.828;4.700;2023-04-25T03:13:26;15.57;;;5.17;;
17151;SDS011;8691;50.828;4.700;2023-04-25T03:15:52;14.40;;;4.27;;
17151;SDS011;8691;50.828;4.700;2023-04-25T03:18:19;15.70;;;5.50;;
17151;SDS011;8691;50.828;4.700;2023-04-25T03:20:46;16.60;;;5.43;;
17151;SDS011;8691;50.828;4.700;2023-04-25T03:23:14;12.23;;;4.97;;
17151;SDS011;8691;50.828;4.700;2023-04-25T03:25:42;16.65;;;5.05;;
17151;SDS011;8691;50.828;4.700;2023-04-25T03:28:08;15.50;;;4.87;;
17151;SDS011;8691;50.828;4.700;2023-04-25T03:30:35;14.33;;;4.97;;
17151;SDS011;8691;50.828;4.700;2023-04-25T03:33:02;11.87;;;4.73;;
17151;SDS011;8691;50.828;4.700;2023-04-25T03:35:29;14.68;;;5.03;;
17151;SDS011;8691;50.828;4.700;2023-04-25T03:37:56;15.70;;;5.53;;
17151;SDS011;8691;50.828;4.700;2023-04-25T03:40:23;15.27;;;5.20;;
17151;SDS011;8691;50.828;4.700;2023-04-25T03:42:49;13.73;;;5.28;;
17151;SDS011;8691;50.828;4.700;2023-04-25T03:45:17;15.10;;;5.10;;
17151;SDS011;8691;50.828;4.700;2023-04-25T03:47:44;15.02;;;5.18;;
17151;SDS011;8691;50.828;4.700;2023-04-25T03:50:11;12.15;;;4.97;;
17151;SDS011;8691;50.828;4.700;2023-04-25T03:52:38;18.62;;;5.90;;
17151;SDS011;8691;50.828;4.700;2023-04-25T03:55:06;17.38;;;5.47;;
17151;SDS011;8691;50.828;4.700;2023-04-25T03:57:33;13.32;;;5.07;;
17151;SDS011;8691;50.828;4.700;2023-04-25T04:00:00;15.37;;;4.83;;
17151;SDS011;8691;50.828;4.700;2023-04-25T04:02:27;14.67;;;5.10;;
17151;SDS011;8691;50.828;4.700;2023-04-25T04:04:54;12.93;;;4.90;;
17151;SDS011;8691;50.828;4.700;2023-04-25T04:07:21;14.83;;;5.17;;
17151;SDS011;8691;50.828;4.700;2023-04-25T04:09:48;14.47;;;5.03;;
17151;SDS011;8691;50.828;4.700;2023-04-25T04:12:15;12.55;;;4.38;;
17151;SDS011;8691;50.828;4.700;2023-04-25T04:14:42;16.77;;;5.05;;
17151;SDS011;8691;50.828;4.700;2023-04-25T04:17:09;13.38;;;4.93;;
17151;SDS011;8691;50.828;4.700;2023-04-25T04:19:36;13.90;;;5.00;;
17151;SDS011;8691;50.828;4.700;2023-04-25T04:22:03;14.05;;;4.85;;
17151;SDS011;8691;50.828;4.700;2023-04-25T04:24:30;12.95;;;4.20;;
17151;SDS011;8691;50.828;4.700;2023-04-25T04:26:57;13.00;;;4.40;;
17151;SDS011;8691;50.828;4.700;2023-04-25T04:29:24;12.47;;;4.57;;
17151;SDS011;8691;50.828;4.700;2023-04-25T04:31:51;12.10;;;4.38;;
17151;SDS011;8691;50.828;4.700;2023-04-25T04:34:18;10.77;;;3.93;;
17151;SDS011;8691;50.828;4.700;2023-04-25T04:36:45;12.75;;;4.15;;
17151;SDS011;8691;50.828;4.700;2023-04-25T04:39:14;11.73;;;4.33;;
17151;SDS011;8691;50.828;4.700;2023-04-25T04:41:41;14.27;;;4.67;;
17151;SDS011;8691;50.828;4.700;2023-04-25T04:44:08;13.13;;;4.53;;
17151;SDS011;8691;50.828;4.700;2023-04-25T04:46:35;16.60;;;4.50;;
17151;SDS011;8691;50.828;4.700;2023-04-25T04:49:05;10.50;;;4.20;;
17151;SDS011;8691;50.828;4.700;2023-04-25T04:51:32;10.83;;;4.37;;
17151;SDS011;8691;50.828;4.700;2023-04-25T04:53:59;14.20;;;4.73;;
17151;SDS011;8691;50.828;4.700;2023-04-25T04:56:26;11.67;;;4.13;;
17151;SDS011;8691;50.828;4.700;2023-04-25T04:58:52;10.97;;;4.70;;
17151;SDS011;8691;50.828;4.700;2023-04-25T05:01:19;10.50;;;3.87;;
17151;SDS011;8691;50.828;4.700;2023-04-25T05:03:46;12.83;;;4.23;;
17151;SDS011;8691;50.828;4.700;2023-04-25T05:06:13;11.15;;;4.40;;
17151;SDS011;8691;50.828;4.700;2023-04-25T05:08:40;12.25;;;4.30;;
17151;SDS011;8691;50.828;4.700;2023-04-25T05:11:07;12.00;;;4.65;;
17151;SDS011;8691;50.828;4.700;2023-04-25T05:13:34;10.60;;;3.95;;
17151;SDS011;8691;50.828;4.700;2023-04-25T05:16:01;12.48;;;4.57;;
17151;SDS011;8691;50.828;4.700;2023-04-25T05:18:28;12.20;;;4.60;;
17151;SDS011;8691;50.828;4.700;2023-04-25T05:20:55;10.73;;;4.25;;
17151;SDS011;8691;50.828;4.700;2023-04-25T05:23:22;10.70;;;4.07;;
17151;SDS011;8691;50.828;4.700;2023-04-25T05:25:50;11.25;;;4.15;;
17151;SDS011;8691;50.828;4.700;2023-04-25T05:28:17;13.20;;;4.43;;
17151;SDS011;8691;50.828;4.700;2023-04-25T05:30:44;12.37;;;4.30;;
17151;SDS011;8691;50.828;4.700;2023-04-25T05:33:12;12.80;;;4.50;;
17151;SDS011;8691;50.828;4.700;2023-04-25T05:35:39;12.57;;;4.70;;
17151;SDS011;8691;50.828;4.700;2023-04-25T05:38:06;14.53;;;4.87;;
17151;SDS011;8691;50.828;4.700;2023-04-25T05:40:32;12.63;;;4.80;;
17151;SDS011;8691;50.828;4.700;2023-04-25T05:42:59;11.50;;;4.57;;
17151;SDS011;8691;50.828;4.700;2023-04-25T05:45:26;10.53;;;4.60;;
17151;SDS011;8691;50.828;4.700;2023-04-25T05:47:53;10.60;;;4.03;;
17151;SDS011;8691;50.828;4.700;2023-04-25T05:50:20;11.62;;;4.68;;
17151;SDS011;8691;50.828;4.700;2023-04-25T05:52:47;14.02;;;4.90;;
17151;SDS011;8691;50.828;4.700;2023-04-25T05:55:14;12.60;;;4.90;;
17151;SDS011;8691;50.828;4.700;2023-04-25T05:57:41;14.52;;;5.28;;
17151;SDS011;8691;50.828;4.700;2023-04-25T06:00:08;10.95;;;4.72;;
17151;SDS011;8691;50.828;4.700;2023-04-25T06:02:35;14.05;;;5.53;;
17151;SDS011;8691;50.828;4.700;2023-04-25T06:05:02;13.88;;;5.18;;
17151;SDS011;8691;50.828;4.700;2023-04-25T06:07:29;12.60;;;5.10;;
17151;SDS011;8691;50.828;4.700;2023-04-25T06:09:56;11.07;;;4.90;;
17151;SDS011;8691;50.828;4.700;2023-04-25T06:12:23;12.65;;;5.28;;
17151;SDS011;8691;50.828;4.700;2023-04-25T06:14:50;13.40;;;5.05;;
17151;SDS011;8691;50.828;4.700;2023-04-25T06:17:17;12.90;;;4.70;;
17151;SDS011;8691;50.828;4.700;2023-04-25T06:19:44;15.75;;;5.30;;
17151;SDS011;8691;50.828;4.700;2023-04-25T06:22:11;11.20;;;4.97;;
17151;SDS011;8691;50.828;4.700;2023-04-25T06:24:38;12.45;;;5.18;;
17151;SDS011;8691;50.828;4.700;2023-04-25T06:27:04;17.00;;;5.45;;
17151;SDS011;8691;50.828;4.700;2023-04-25T06:29:31;12.75;;;5.15;;
17151;SDS011;8691;50.828;4.700;2023-04-25T06:31:59;13.23;;;5.00;;
17151;SDS011;8691;50.828;4.700;2023-04-25T06:34:27;13.82;;;4.90;;
17151;SDS011;8691;50.828;4.700;2023-04-25T06:36:54;16.40;;;5.57;;
17151;SDS011;8691;50.828;4.700;2023-04-25T06:39:21;17.67;;;5.65;;
17151;SDS011;8691;50.828;4.700;2023-04-25T06:41:48;14.50;;;5.18;;
17151;SDS011;8691;50.828;4.700;2023-04-25T06:44:15;14.00;;;5.10;;
17151;SDS011;8691;50.828;4.700;2023-04-25T06:46:41;15.93;;;5.53;;
17151;SDS011;8691;50.828;4.700;2023-04-25T06:49:09;14.12;;;4.85;;
17151;SDS011;8691;50.828;4.700;2023-04-25T06:51:37;14.07;;;7.00;;
17151;SDS011;8691;50.828;4.700;2023-04-25T06:54:04;13.30;;;4.30;;
17151;SDS011;8691;50.828;4.700;2023-04-25T06:56:31;17.00;;;4.50;;
17151;SDS011;8691;50.828;4.700;2023-04-25T06:58:58;15.52;;;6.20;;
17151;SDS011;8691;50.828;4.700;2023-04-25T07:01:25;15.40;;;5.22;;
17151;SDS011;8691;50.828;4.700;2023-04-25T07:03:52;13.87;;;5.30;;
17151;SDS011;8691;50.828;4.700;2023-04-25T07:06:18;13.70;;;4.70;;
17151;SDS011;8691;50.828;4.700;2023-04-25T07:08:45;13.00;;;4.80;;
17151;SDS011;8691;50.828;4.700;2023-04-25T07:11:12;12.95;;;4.62;;
17151;SDS011;8691;50.828;4.700;2023-04-25T07:13:39;10.95;;;4.75;;
17151;SDS011;8691;50.828;4.700;2023-04-25T07:16:06;15.80;;;4.90;;
17151;SDS011;8691;50.828;4.700;2023-04-25T07:18:33;15.40;;;4.70;;
17151;SDS011;8691;50.828;4.700;2023-04-25T07:21:00;12.83;;;4.80;;
17151;SDS011;8691;50.828;4.700;2023-04-25T07:23:27;16.08;;;5.90;;
17151;SDS011;8691;50.828;4.700;2023-04-25T07:25:54;12.27;;;4.30;;
17151;SDS011;8691;50.828;4.700;2023-04-25T07:28:21;9.43;;;4.03;;
17151;SDS011;8691;50.828;4.700;2023-04-25T07:30:49;11.83;;;4.43;;
17151;SDS011;8691;50.828;4.700;2023-04-25T07:33:16;19.40;;;8.77;;
17151;SDS011;8691;50.828;4.700;2023-04-25T07:35:43;11.27;;;4.20;;
17151;SDS011;8691;50.828;4.700;2023-04-25T07:38:10;13.30;;;4.53;;
17151;SDS011;8691;50.828;4.700;2023-04-25T07:40:37;16.33;;;4.32;;
17151;SDS011;8691;50.828;4.700;2023-04-25T07:43:04;12.50;;;4.28;;
17151;SDS011;8691;50.828;4.700;2023-04-25T07:45:31;15.65;;;4.40;;
17151;SDS011;8691;50.828;4.700;2023-04-25T07:47:58;12.32;;;4.38;;
17151;SDS011;8691;50.828;4.700;2023-04-25T07:50:25;11.85;;;4.32;;
17151;SDS011;8691;50.828;4.700;2023-04-25T07:52:52;11.17;;;4.47;;
17151;SDS011;8691;50.828;4.700;2023-04-25T07:55:19;11.23;;;4.20;;
17151;SDS011;8691;50.828;4.700;2023-04-25T07:57:46;11.73;;;4.50;;
17151;SDS011;8691;50.828;4.700;2023-04-25T08:00:13;11.77;;;4.33;;
17151;SDS011;8691;50.828;4.700;2023-04-25T08:02:40;12.57;;;4.40;;
17151;SDS011;8691;50.828;4.700;2023-04-25T08:05:07;13.43;;;4.63;;
17151;SDS011;8691;50.828;4.700;2023-04-25T08:07:34;13.18;;;4.55;;
17151;SDS011;8691;50.828;4.700;2023-04-25T08:10:01;13.23;;;4.72;;
17151;SDS011;8691;50.828;4.700;2023-04-25T08:12:28;16.02;;;4.72;;
17151;SDS011;8691;50.828;4.700;2023-04-25T08:14:54;13.17;;;4.17;;
17151;SDS011;8691;50.828;4.700;2023-04-25T08:17:21;12.30;;;4.12;;
17151;SDS011;8691;50.828;4.700;2023-04-25T08:19:48;13.60;;;4.43;;
17151;SDS011;8691;50.828;4.700;2023-04-25T08:22:15;10.43;;;4.60;;
17151;SDS011;8691;50.828;4.700;2023-04-25T08:24:42;14.12;;;4.80;;
17151;SDS011;8691;50.828;4.700;2023-04-25T08:27:09;10.62;;;4.50;;
17151;SDS011;8691;50.828;4.700;2023-04-25T08:29:36;12.43;;;4.47;;
17151;SDS011;8691;50.828;4.700;2023-04-25T08:32:03;12.27;;;4.43;;
17151;SDS011;8691;50.828;4.700;2023-04-25T08:34:30;11.37;;;4.20;;
17151;SDS011;8691;50.828;4.700;2023-04-25T08:36:56;13.27;;;4.97;;
17151;SDS011;8691;50.828;4.700;2023-04-25T08:39:23;11.57;;;4.33;;
17151;SDS011;8691;50.828;4.700;2023-04-25T08:41:50;12.98;;;4.60;;
17151;SDS011;8691;50.828;4.700;2023-04-25T08:44:17;12.33;;;4.43;;
17151;SDS011;8691;50.828;4.700;2023-04-25T08:46:44;12.23;;;4.07;;
17151;SDS011;8691;50.828;4.700;2023-04-25T08:49:12;11.17;;;4.13;;
17151;SDS011;8691;50.828;4.700;2023-04-25T08:51:44;9.67;;;3.60;;
17151;SDS011;8691;50.828;4.700;2023-04-25T08:54:11;11.62;;;3.83;;
17151;SDS011;8691;50.828;4.700;2023-04-25T08:56:38;11.23;;;3.50;;
17151;SDS011;8691;50.828;4.700;2023-04-25T08:59:05;12.10;;;3.77;;
17151;SDS011;8691;50.828;4.700;2023-04-25T09:01:32;12.38;;;3.70;;
17151;SDS011;8691;50.828;4.700;2023-04-25T09:03:59;12.88;;;3.42;;
17151;SDS011;8691;50.828;4.700;2023-04-25T09:06:27;8.80;;;3.03;;
17151;SDS011;8691;50.828;4.700;2023-04-25T09:08:53;12.40;;;3.67;;
17151;SDS011;8691;50.828;4.700;2023-04-25T09:11:20;10.27;;;3.70;;
17151;SDS011;8691;50.828;4.700;2023-04-25T09:13:47;9.30;;;3.20;;
17151;SDS011;8691;50.828;4.700;2023-04-25T09:16:14;10.45;;;3.30;;
17151;SDS011;8691;50.828;4.700;2023-04-25T09:18:41;8.85;;;2.97;;
17151;SDS011;8691;50.828;4.700;2023-04-25T09:21:08;7.45;;;2.97;;
17151;SDS011;8691;50.828;4.700;2023-04-25T09:23:43;10.07;;;3.00;;
17151;SDS011;8691;50.828;4.700;2023-04-25T09:26:13;8.62;;;2.67;;
17151;SDS011;8691;50.828;4.700;2023-04-25T09:28:37;6.93;;;2.60;;
17151;SDS011;8691;50.828;4.700;2023-04-25T09:31:04;7.93;;;2.50;;
17151;SDS011;8691;50.828;4.700;2023-04-25T09:33:31;8.02;;;2.45;;
17151;SDS011;8691;50.828;4.700;2023-04-25T09:36:05;4.70;;;2.07;;
17151;SDS011;8691;50.828;4.700;2023-04-25T09:38:28;7.20;;;2.60;;
17151;SDS011;8691;50.828;4.700;2023-04-25T09:40:55;8.03;;;2.70;;
17151;SDS011;8691;50.828;4.700;2023-04-25T09:43:23;6.88;;;2.30;;
17151;SDS011;8691;50.828;4.700;2023-04-25T09:45:49;7.55;;;2.90;;
17151;SDS011;8691;50.828;4.700;2023-04-25T09:48:19;5.12;;;2.10;;
17151;SDS011;8691;50.828;4.700;2023-04-25T09:50:55;6.38;;;2.53;;
17151;SDS011;8691;50.828;4.700;2023-04-25T09:53:13;6.57;;;2.35;;
17151;SDS011;8691;50.828;4.700;2023-04-25T09:55:40;7.13;;;2.73;;
17151;SDS011;8691;50.828;4.700;2023-04-25T09:58:06;8.10;;;2.60;;
17151;SDS011;8691;50.828;4.700;2023-04-25T10:00:34;7.47;;;2.40;;
17151;SDS011;8691;50.828;4.700;2023-04-25T10:03:01;6.83;;;2.30;;
17151;SDS011;8691;50.828;4.700;2023-04-25T10:05:27;9.37;;;2.20;;
17151;SDS011;8691;50.828;4.700;2023-04-25T10:07:54;6.57;;;2.72;;
17151;SDS011;8691;50.828;4.700;2023-04-25T10:10:21;7.70;;;2.43;;
17151;SDS011;8691;50.828;4.700;2023-04-25T10:12:48;8.50;;;2.58;;
17151;SDS011;8691;50.828;4.700;2023-04-25T10:15:15;10.07;;;3.03;;
17151;SDS011;8691;50.828;4.700;2023-04-25T10:17:42;9.17;;;2.90;;
17151;SDS011;8691;50.828;4.700;2023-04-25T10:20:09;6.33;;;2.30;;
17151;SDS011;8691;50.828;4.700;2023-04-25T10:22:39;6.07;;;2.10;;
17151;SDS011;8691;50.828;4.700;2023-04-25T10:25:06;6.97;;;2.20;;
17151;SDS011;8691;50.828;4.700;2023-04-25T10:27:32;6.32;;;2.30;;
17151;SDS011;8691;50.828;4.700;2023-04-25T10:30:03;4.85;;;1.80;;
17151;SDS011;8691;50.828;4.700;2023-04-25T10:32:30;4.75;;;1.80;;
17151;SDS011;8691;50.828;4.700;2023-04-25T10:34:56;5.85;;;1.90;;
17151;SDS011;8691;50.828;4.700;2023-04-25T10:37:23;4.40;;;1.50;;
17151;SDS011;8691;50.828;4.700;2023-04-25T10:39:49;5.53;;;1.73;;
17151;SDS011;8691;50.828;4.700;2023-04-25T10:42:16;4.10;;;1.40;;
17151;SDS011;8691;50.828;4.700;2023-04-25T10:44:47;4.32;;;1.50;;
17151;SDS011;8691;50.828;4.700;2023-04-25T10:47:10;4.82;;;1.83;;
17151;SDS011;8691;50.828;4.700;2023-04-25T10:49:41;4.27;;;1.67;;
17151;SDS011;8691;50.828;4.700;2023-04-25T10:52:14;4.53;;;1.50;;
17151;SDS011;8691;50.828;4.700;2023-04-25T10:54:47;5.00;;;1.60;;
17151;SDS011;8691;50.828;4.700;2023-04-25T10:57:29;4.60;;;1.65;;
17151;SDS011;8691;50.828;4.700;2023-04-25T11:00:01;4.82;;;1.50;;
17151;SDS011;8691;50.828;4.700;2023-04-25T11:02:28;4.80;;;1.80;;
17151;SDS011;8691;50.828;4.700;2023-04-25T11:04:55;6.25;;;1.83;;
17151;SDS011;8691;50.828;4.700;2023-04-25T11:07:38;3.97;;;1.50;;
17151;SDS011;8691;50.828;4.700;2023-04-25T11:10:04;3.23;;;1.33;;
17151;SDS011;8691;50.828;4.700;2023-04-25T11:12:31;4.65;;;1.75;;
17151;SDS011;8691;50.828;4.700;2023-04-25T11:14:59;4.35;;;1.60;;
17151;SDS011;8691;50.828;4.700;2023-04-25T11:17:25;4.03;;;1.40;;
17151;SDS011;8691;50.828;4.700;2023-04-25T11:19:51;5.45;;;1.60;;
17151;SDS011;8691;50.828;4.700;2023-04-25T11:22:18;4.47;;;1.77;;
17151;SDS011;8691;50.828;4.700;2023-04-25T11:24:46;4.90;;;1.83;;
17151;SDS011;8691;50.828;4.700;2023-04-25T11:27:13;4.13;;;1.70;;
17151;SDS011;8691;50.828;4.700;2023-04-25T11:29:40;5.32;;;1.77;;
17151;SDS011;8691;50.828;4.700;2023-04-25T11:32:06;4.07;;;1.60;;
17151;SDS011;8691;50.828;4.700;2023-04-25T11:34:33;3.50;;;1.70;;
17151;SDS011;8691;50.828;4.700;2023-04-25T11:37:01;6.25;;;2.10;;
17151;SDS011;8691;50.828;4.700;2023-04-25T11:39:28;5.40;;;2.12;;
17151;SDS011;8691;50.828;4.700;2023-04-25T11:41:55;7.33;;;2.03;;
17151;SDS011;8691;50.828;4.700;2023-04-25T11:44:22;7.20;;;2.10;;
17151;SDS011;8691;50.828;4.700;2023-04-25T11:46:49;7.67;;;2.50;;
17151;SDS011;8691;50.828;4.700;2023-04-25T11:49:15;4.35;;;2.20;;
17151;SDS011;8691;50.828;4.700;2023-04-25T11:51:43;6.70;;;2.10;;
17151;SDS011;8691;50.828;4.700;2023-04-25T11:54:09;5.82;;;1.90;;
17151;SDS011;8691;50.828;4.700;2023-04-25T11:56:36;7.00;;;1.70;;
17151;SDS011;8691;50.828;4.700;2023-04-25T11:59:04;5.00;;;2.00;;
17151;SDS011;8691;50.828;4.700;2023-04-25T12:01:33;8.77;;;2.30;;
17151;SDS011;8691;50.828;4.700;2023-04-25T12:04:12;6.15;;;1.98;;
17151;SDS011;8691;50.828;4.700;2023-04-25T12:06:38;4.18;;;1.85;;
17151;SDS011;8691;50.828;4.700;2023-04-25T12:09:09;5.70;;;1.93;;
17151;SDS011;8691;50.828;4.700;2023-04-25T12:11:44;4.43;;;1.80;;
17151;SDS011;8691;50.828;4.700;2023-04-25T12:14:26;5.78;;;2.05;;
17151;SDS011;8691;50.828;4.700;2023-04-25T12:16:56;7.20;;;2.60;;
17151;SDS011;8691;50.828;4.700;2023-04-25T12:19:22;4.70;;;2.23;;
17151;SDS011;8691;50.828;4.700;2023-04-25T12:21:50;5.35;;;2.40;;
17151;SDS011;8691;50.828;4.700;2023-04-25T12:24:23;6.83;;;2.40;;
17151;SDS011;8691;50.828;4.700;2023-04-25T12:27:04;4.13;;;1.97;;
17151;SDS011;8691;50.828;4.700;2023-04-25T12:29:31;4.53;;;2.08;;
17151;SDS011;8691;50.828;4.700;2023-04-25T12:31:57;5.20;;;2.08;;
17151;SDS011;8691;50.828;4.700;2023-04-25T12:34:24;6.47;;;2.42;;
17151;SDS011;8691;50.828;4.700;2023-04-25T12:36:51;6.13;;;2.20;;
17151;SDS011;8691;50.828;4.700;2023-04-25T12:39:22;4.32;;;2.10;;
17151;SDS011;8691;50.828;4.700;2023-04-25T12:41:45;4.40;;;1.70;;
17151;SDS011;8691;50.828;4.700;2023-04-25T12:44:12;3.33;;;1.60;;
17151;SDS011;8691;50.828;4.700;2023-04-25T12:46:39;3.50;;;1.77;;
17151;SDS011;8691;50.828;4.700;2023-04-25T12:49:07;5.17;;;2.00;;
17151;SDS011;8691;50.828;4.700;2023-04-25T12:51:36;4.45;;;1.85;;
17151;SDS011;8691;50.828;4.700;2023-04-25T12:54:03;2.67;;;1.40;;
17151;SDS011;8691;50.828;4.700;2023-04-25T12:56:29;2.80;;;1.23;;
17151;SDS011;8691;50.828;4.700;2023-04-25T12:58:56;3.35;;;1.42;;
17151;SDS011;8691;50.828;4.700;2023-04-25T13:01:23;3.62;;;1.50;;
17151;SDS011;8691;50.828;4.700;2023-04-25T13:03:50;2.40;;;1.20;;
17151;SDS011;8691;50.828;4.700;2023-04-25T13:06:17;3.05;;;1.30;;
17151;SDS011;8691;50.828;4.700;2023-04-25T13:08:44;2.22;;;1.12;;
17151;SDS011;8691;50.828;4.700;2023-04-25T13:11:10;4.03;;;1.37;;
17151;SDS011;8691;50.828;4.700;2023-04-25T13:13:37;2.77;;;1.17;;
17151;SDS011;8691;50.828;4.700;2023-04-25T13:16:04;3.92;;;1.30;;
17151;SDS011;8691;50.828;4.700;2023-04-25T13:18:31;2.90;;;1.40;;
17151;SDS011;8691;50.828;4.700;2023-04-25T13:20:58;4.15;;;1.50;;
17151;SDS011;8691;50.828;4.700;2023-04-25T13:23:26;3.33;;;1.50;;
17151;SDS011;8691;50.828;4.700;2023-04-25T13:25:53;4.07;;;1.30;;
17151;SDS011;8691;50.828;4.700;2023-04-25T13:28:20;3.53;;;1.50;;
17151;SDS011;8691;50.828;4.700;2023-04-25T13:30:47;3.60;;;1.40;;
17151;SDS011;8691;50.828;4.700;2023-04-25T13:33:14;5.17;;;1.60;;
17151;SDS011;8691;50.828;4.700;2023-04-25T13:35:41;7.90;;;1.70;;
17151;SDS011;8691;50.828;4.700;2023-04-25T13:38:08;4.03;;;1.47;;
17151;SDS011;8691;50.828;4.700;2023-04-25T13:40:35;4.15;;;1.60;;
17151;SDS011;8691;50.828;4.700;2023-04-25T13:43:02;4.10;;;1.48;;
17151;SDS011;8691;50.828;4.700;2023-04-25T13:45:29;4.55;;;1.50;;
17151;SDS011;8691;50.828;4.700;2023-04-25T13:47:56;4.35;;;1.70;;
17151;SDS011;8691;50.828;4.700;2023-04-25T13:50:23;4.80;;;1.50;;
17151;SDS011;8691;50.828;4.700;2023-04-25T13:52:51;3.88;;;1.50;;
17151;SDS011;8691;50.828;4.700;2023-04-25T13:55:17;5.73;;;2.00;;
17151;SDS011;8691;50.828;4.700;2023-04-25T13:57:44;3.30;;;1.45;;
17151;SDS011;8691;50.828;4.700;2023-04-25T14:00:11;2.97;;;1.40;;
17151;SDS011;8691;50.828;4.700;2023-04-25T14:02:38;3.87;;;1.50;;
17151;SDS011;8691;50.828;4.700;2023-04-25T14:05:05;3.60;;;1.43;;
17151;SDS011;8691;50.828;4.700;2023-04-25T14:07:33;3.70;;;1.70;;
17151;SDS011;8691;50.828;4.700;2023-04-25T14:09:58;3.45;;;1.70;;
17151;SDS011;8691;50.828;4.700;2023-04-25T14:12:26;3.15;;;1.20;;
17151;SDS011;8691;50.828;4.700;2023-04-25T14:14:53;4.65;;;1.20;;
17151;SDS011;8691;50.828;4.700;2023-04-25T14:17:19;3.27;;;1.30;;
17151;SDS011;8691;50.828;4.700;2023-04-25T14:19:46;4.05;;;1.33;;
17151;SDS011;8691;50.828;4.700;2023-04-25T14:22:13;5.63;;;1.60;;
17151;SDS011;8691;50.828;4.700;2023-04-25T14:24:40;4.07;;;1.40;;
17151;SDS011;8691;50.828;4.700;2023-04-25T14:27:08;4.40;;;1.73;;
17151;SDS011;8691;50.828;4.700;2023-04-25T14:29:34;5.27;;;1.50;;
17151;SDS011;8691;50.828;4.700;2023-04-25T14:32:01;7.40;;;1.95;;
17151;SDS011;8691;50.828;4.700;2023-04-25T14:34:28;4.35;;;1.60;;
17151;SDS011;8691;50.828;4.700;2023-04-25T14:36:55;4.30;;;1.70;;
17151;SDS011;8691;50.828;4.700;2023-04-25T14:39:22;5.65;;;1.50;;
17151;SDS011;8691;50.828;4.700;2023-04-25T14:41:49;2.15;;;1.08;;
17151;SDS011;8691;50.828;4.700;2023-04-25T14:44:15;3.62;;;1.60;;
17151;SDS011;8691;50.828;4.700;2023-04-25T14:46:43;3.73;;;1.37;;
17151;SDS011;8691;50.828;4.700;2023-04-25T14:49:10;3.63;;;1.27;;
17151;SDS011;8691;50.828;4.700;2023-04-25T14:51:38;3.33;;;1.55;;
17151;SDS011;8691;50.828;4.700;2023-04-25T14:54:04;5.12;;;1.40;;